sensor_id;sensor_type;location;lat;lon;timestamp;P1;durP1;ratioP1;P2;durP2;ratioP2
3597;SDS011;1813;52.016;8.714;2024-02-14T00:00:54;4.97;;;4.30;;
3597;SDS011;1813;52.016;8.714;2024-02-14T00:03:28;4.83;;;4.37;;
3597;SDS011;1813;52.016;8.714;2024-02-14T00:06:03;7.40;;;4.00;;
3597;SDS011;1813;52.016;8.714;2024-02-14T00:08:37;10.77;;;4.23;;
3597;SDS011;1813;52.016;8.714;2024-02-14T00:11:15;6.73;;;4.40;;
3597;SDS011;1813;52.016;8.714;2024-02-14T00:13:49;7.27;;;4.50;;
3597;SDS011;1813;52.016;8.714;2024-02-14T00:16:27;6.43;;;4.10;;
3597;SDS011;1813;52.016;8.714;2024-02-14T00:19:02;6.20;;;4.13;;
3597;SDS011;1813;52.016;8.714;2024-02-14T00:21:36;5.93;;;4.20;;
3597;SDS011;1813;52.016;8.714;2024-02-14T00:24:09;5.53;;;3.70;;
3597;SDS011;1813;52.016;8.714;2024-02-14T00:26:45;5.37;;;4.40;;
3597;SDS011;1813;52.016;8.714;2024-02-14T00:29:19;6.13;;;4.20;;
3597;SDS011;1813;52.016;8.714;2024-02-14T00:31:55;4.87;;;4.27;;
3597;SDS011;1813;52.016;8.714;2024-02-14T00:34:29;6.10;;;4.13;;
3597;SDS011;1813;52.016;8.714;2024-02-14T00:37:04;7.67;;;4.03;;
3597;SDS011;1813;52.016;8.714;2024-02-14T00:39:38;5.57;;;4.17;;
3597;SDS011;1813;52.016;8.714;2024-02-14T00:42:14;6.53;;;4.70;;
3597;SDS011;1813;52.016;8.714;2024-02-14T00:44:47;6.23;;;4.33;;
3597;SDS011;1813;52.016;8.714;2024-02-14T00:47:21;8.37;;;4.60;;
3597;SDS011;1813;52.016;8.714;2024-02-14T00:49:55;7.43;;;4.13;;
3597;SDS011;1813;52.016;8.714;2024-02-14T00:52:29;6.27;;;4.60;;
3597;SDS011;1813;52.016;8.714;2024-02-14T00:55:04;5.37;;;3.87;;
3597;SDS011;1813;52.016;8.714;2024-02-14T00:57:40;9.37;;;4.10;;
3597;SDS011;1813;52.016;8.714;2024-02-14T01:00:13;3.80;;;3.50;;
3597;SDS011;1813;52.016;8.714;2024-02-14T01:02:47;6.67;;;3.90;;
3597;SDS011;1813;52.016;8.714;2024-02-14T01:05:21;5.10;;;3.87;;
3597;SDS011;1813;52.016;8.714;2024-02-14T01:07:58;7.17;;;3.70;;
3597;SDS011;1813;52.016;8.714;2024-02-14T01:10:31;6.33;;;4.27;;
3597;SDS011;1813;52.016;8.714;2024-02-14T01:13:08;7.60;;;4.30;;
3597;SDS011;1813;52.016;8.714;2024-02-14T01:15:42;4.17;;;3.67;;
3597;SDS011;1813;52.016;8.714;2024-02-14T01:18:15;7.90;;;3.90;;
3597;SDS011;1813;52.016;8.714;2024-02-14T01:20:49;6.97;;;3.73;;
3597;SDS011;1813;52.016;8.714;2024-02-14T01:23:24;7.83;;;3.97;;
3597;SDS011;1813;52.016;8.714;2024-02-14T01:25:57;8.07;;;3.73;;
3597;SDS011;1813;52.016;8.714;2024-02-14T01:28:33;4.63;;;3.60;;
3597;SDS011;1813;52.016;8.714;2024-02-14T01:31:06;5.13;;;3.90;;
3597;SDS011;1813;52.016;8.714;2024-02-14T01:33:44;5.30;;;3.97;;
3597;SDS011;1813;52.016;8.714;2024-02-14T01:36:18;4.67;;;3.40;;
3597;SDS011;1813;52.016;8.714;2024-02-14T01:38:52;6.80;;;4.27;;
3597;SDS011;1813;52.016;8.714;2024-02-14T01:41:25;8.10;;;4.10;;
3597;SDS011;1813;52.016;8.714;2024-02-14T01:44:02;8.03;;;4.00;;
3597;SDS011;1813;52.016;8.714;2024-02-14T01:46:38;7.43;;;3.70;;
3597;SDS011;1813;52.016;8.714;2024-02-14T01:49:14;4.13;;;3.73;;
3597;SDS011;1813;52.016;8.714;2024-02-14T01:51:51;5.90;;;4.30;;
3597;SDS011;1813;52.016;8.714;2024-02-14T01:54:25;5.27;;;4.27;;
3597;SDS011;1813;52.016;8.714;2024-02-14T01:57:00;9.43;;;4.63;;
3597;SDS011;1813;52.016;8.714;2024-02-14T01:59:36;6.13;;;4.07;;
3597;SDS011;1813;52.016;8.714;2024-02-14T02:02:10;5.43;;;4.63;;
3597;SDS011;1813;52.016;8.714;2024-02-14T02:04:43;4.80;;;4.00;;
3597;SDS011;1813;52.016;8.714;2024-02-14T02:07:17;5.40;;;4.33;;
3597;SDS011;1813;52.016;8.714;2024-02-14T02:09:53;9.40;;;4.90;;
3597;SDS011;1813;52.016;8.714;2024-02-14T02:12:26;5.97;;;4.57;;
3597;SDS011;1813;52.016;8.714;2024-02-14T02:15:02;9.63;;;4.80;;
3597;SDS011;1813;52.016;8.714;2024-02-14T02:17:36;4.70;;;4.30;;
3597;SDS011;1813;52.016;8.714;2024-02-14T02:20:10;9.27;;;4.90;;
3597;SDS011;1813;52.016;8.714;2024-02-14T02:22:48;8.53;;;5.10;;
3597;SDS011;1813;52.016;8.714;2024-02-14T02:25:24;6.27;;;4.63;;
3597;SDS011;1813;52.016;8.714;2024-02-14T02:27:59;4.60;;;4.20;;
3597;SDS011;1813;52.016;8.714;2024-02-14T02:30:32;8.67;;;4.67;;
3597;SDS011;1813;52.016;8.714;2024-02-14T02:33:08;5.87;;;4.57;;
3597;SDS011;1813;52.016;8.714;2024-02-14T02:35:43;4.60;;;4.17;;
3597;SDS011;1813;52.016;8.714;2024-02-14T02:38:20;8.53;;;4.37;;
3597;SDS011;1813;52.016;8.714;2024-02-14T02:40:54;5.40;;;4.37;;
3597;SDS011;1813;52.016;8.714;2024-02-14T02:43:27;10.00;;;4.80;;
3597;SDS011;1813;52.016;8.714;2024-02-14T02:46:02;7.90;;;4.70;;
3597;SDS011;1813;52.016;8.714;2024-02-14T02:48:35;9.80;;;4.60;;
3597;SDS011;1813;52.016;8.714;2024-02-14T02:51:08;7.20;;;4.40;;
3597;SDS011;1813;52.016;8.714;2024-02-14T02:53:46;8.03;;;4.30;;
3597;SDS011;1813;52.016;8.714;2024-02-14T02:56:20;4.27;;;3.87;;
3597;SDS011;1813;52.016;8.714;2024-02-14T02:58:57;8.13;;;4.50;;
3597;SDS011;1813;52.016;8.714;2024-02-14T03:01:35;6.27;;;4.40;;
3597;SDS011;1813;52.016;8.714;2024-02-14T03:04:08;7.37;;;4.30;;
3597;SDS011;1813;52.016;8.714;2024-02-14T03:06:43;5.43;;;3.93;;
3597;SDS011;1813;52.016;8.714;2024-02-14T03:09:19;7.20;;;3.70;;
3597;SDS011;1813;52.016;8.714;2024-02-14T03:11:52;5.30;;;3.93;;
3597;SDS011;1813;52.016;8.714;2024-02-14T03:14:28;7.73;;;3.90;;
3597;SDS011;1813;52.016;8.714;2024-02-14T03:17:02;6.07;;;3.93;;
3597;SDS011;1813;52.016;8.714;2024-02-14T03:19:39;4.73;;;3.80;;
3597;SDS011;1813;52.016;8.714;2024-02-14T03:22:13;3.97;;;3.53;;
3597;SDS011;1813;52.016;8.714;2024-02-14T03:24:51;6.43;;;3.23;;
3597;SDS011;1813;52.016;8.714;2024-02-14T03:27:24;4.00;;;3.60;;
3597;SDS011;1813;52.016;8.714;2024-02-14T03:29:58;4.20;;;3.80;;
3597;SDS011;1813;52.016;8.714;2024-02-14T03:32:36;6.43;;;3.80;;
3597;SDS011;1813;52.016;8.714;2024-02-14T03:35:10;5.70;;;4.13;;
3597;SDS011;1813;52.016;8.714;2024-02-14T03:37:46;4.10;;;3.40;;
3597;SDS011;1813;52.016;8.714;2024-02-14T03:40:25;8.87;;;4.10;;
3597;SDS011;1813;52.016;8.714;2024-02-14T03:43:00;4.10;;;3.60;;
3597;SDS011;1813;52.016;8.714;2024-02-14T03:45:33;4.20;;;3.23;;
3597;SDS011;1813;52.016;8.714;2024-02-14T03:48:09;7.37;;;3.13;;
3597;SDS011;1813;52.016;8.714;2024-02-14T03:50:44;7.13;;;3.83;;
3597;SDS011;1813;52.016;8.714;2024-02-14T03:53:18;4.67;;;3.80;;
3597;SDS011;1813;52.016;8.714;2024-02-14T03:55:55;3.63;;;3.30;;
3597;SDS011;1813;52.016;8.714;2024-02-14T03:58:29;3.70;;;3.30;;
3597;SDS011;1813;52.016;8.714;2024-02-14T04:01:03;4.73;;;3.60;;
3597;SDS011;1813;52.016;8.714;2024-02-14T04:03:37;4.47;;;3.37;;
3597;SDS011;1813;52.016;8.714;2024-02-14T04:06:11;3.60;;;3.27;;
3597;SDS011;1813;52.016;8.714;2024-02-14T04:08:44;5.43;;;3.40;;
3597;SDS011;1813;52.016;8.714;2024-02-14T04:11:20;4.90;;;3.17;;
3597;SDS011;1813;52.016;8.714;2024-02-14T04:13:55;3.50;;;3.20;;
3597;SDS011;1813;52.016;8.714;2024-02-14T04:16:28;4.20;;;3.57;;
3597;SDS011;1813;52.016;8.714;2024-02-14T04:19:02;5.17;;;3.50;;
3597;SDS011;1813;52.016;8.714;2024-02-14T04:21:36;4.93;;;3.40;;
3597;SDS011;1813;52.016;8.714;2024-02-14T04:24:10;6.97;;;3.00;;
3597;SDS011;1813;52.016;8.714;2024-02-14T04:26:46;3.77;;;3.40;;
3597;SDS011;1813;52.016;8.714;2024-02-14T04:29:20;3.30;;;3.10;;
3597;SDS011;1813;52.016;8.714;2024-02-14T04:31:53;3.67;;;3.30;;
3597;SDS011;1813;52.016;8.714;2024-02-14T04:34:27;3.90;;;3.40;;
3597;SDS011;1813;52.016;8.714;2024-02-14T04:37:02;4.40;;;3.23;;
3597;SDS011;1813;52.016;8.714;2024-02-14T04:39:40;3.60;;;3.00;;
3597;SDS011;1813;52.016;8.714;2024-02-14T04:42:17;6.07;;;3.70;;
3597;SDS011;1813;52.016;8.714;2024-02-14T04:44:50;6.47;;;3.20;;
3597;SDS011;1813;52.016;8.714;2024-02-14T04:47:23;5.10;;;3.27;;
3597;SDS011;1813;52.016;8.714;2024-02-14T04:50:00;5.10;;;3.77;;
3597;SDS011;1813;52.016;8.714;2024-02-14T04:52:34;4.30;;;3.67;;
3597;SDS011;1813;52.016;8.714;2024-02-14T04:55:08;5.90;;;3.70;;
3597;SDS011;1813;52.016;8.714;2024-02-14T04:57:46;6.50;;;4.10;;
3597;SDS011;1813;52.016;8.714;2024-02-14T05:00:20;6.20;;;3.93;;
3597;SDS011;1813;52.016;8.714;2024-02-14T05:02:53;5.40;;;4.07;;
3597;SDS011;1813;52.016;8.714;2024-02-14T05:05:27;4.20;;;3.90;;
3597;SDS011;1813;52.016;8.714;2024-02-14T05:08:01;3.83;;;3.53;;
3597;SDS011;1813;52.016;8.714;2024-02-14T05:10:35;5.47;;;4.63;;
3597;SDS011;1813;52.016;8.714;2024-02-14T05:13:11;4.70;;;4.00;;
3597;SDS011;1813;52.016;8.714;2024-02-14T05:15:45;4.30;;;3.93;;
3597;SDS011;1813;52.016;8.714;2024-02-14T05:18:21;4.63;;;4.23;;
3597;SDS011;1813;52.016;8.714;2024-02-14T05:20:56;6.73;;;4.30;;
3597;SDS011;1813;52.016;8.714;2024-02-14T05:23:29;7.03;;;4.70;;
3597;SDS011;1813;52.016;8.714;2024-02-14T05:26:06;5.03;;;4.53;;
3597;SDS011;1813;52.016;8.714;2024-02-14T05:28:43;4.83;;;4.43;;
3597;SDS011;1813;52.016;8.714;2024-02-14T05:31:16;5.73;;;4.73;;
3597;SDS011;1813;52.016;8.714;2024-02-14T05:33:51;7.37;;;5.07;;
3597;SDS011;1813;52.016;8.714;2024-02-14T05:36:24;5.33;;;4.83;;
3597;SDS011;1813;52.016;8.714;2024-02-14T05:38:59;6.57;;;5.53;;
3597;SDS011;1813;52.016;8.714;2024-02-14T05:41:32;7.20;;;4.90;;
3597;SDS011;1813;52.016;8.714;2024-02-14T05:44:09;5.50;;;5.00;;
3597;SDS011;1813;52.016;8.714;2024-02-14T05:46:43;5.20;;;4.80;;
3597;SDS011;1813;52.016;8.714;2024-02-14T05:49:16;7.43;;;5.27;;
3597;SDS011;1813;52.016;8.714;2024-02-14T05:51:50;6.13;;;4.93;;
3597;SDS011;1813;52.016;8.714;2024-02-14T05:54:24;6.87;;;5.67;;
3597;SDS011;1813;52.016;8.714;2024-02-14T05:56:57;8.33;;;6.13;;
3597;SDS011;1813;52.016;8.714;2024-02-14T05:59:34;6.70;;;5.70;;
3597;SDS011;1813;52.016;8.714;2024-02-14T06:02:07;10.67;;;5.50;;
3597;SDS011;1813;52.016;8.714;2024-02-14T06:04:40;6.60;;;5.30;;
3597;SDS011;1813;52.016;8.714;2024-02-14T06:07:15;5.70;;;5.20;;
3597;SDS011;1813;52.016;8.714;2024-02-14T06:09:49;6.07;;;5.53;;
3597;SDS011;1813;52.016;8.714;2024-02-14T06:12:24;5.77;;;5.27;;
3597;SDS011;1813;52.016;8.714;2024-02-14T06:15:03;5.70;;;5.20;;
3597;SDS011;1813;52.016;8.714;2024-02-14T06:17:39;5.50;;;5.00;;
3597;SDS011;1813;52.016;8.714;2024-02-14T06:20:12;6.00;;;5.00;;
3597;SDS011;1813;52.016;8.714;2024-02-14T06:22:46;6.00;;;5.40;;
3597;SDS011;1813;52.016;8.714;2024-02-14T06:25:21;8.77;;;6.30;;
3597;SDS011;1813;52.016;8.714;2024-02-14T06:27:57;13.00;;;5.87;;
3597;SDS011;1813;52.016;8.714;2024-02-14T06:30:33;9.40;;;5.83;;
3597;SDS011;1813;52.016;8.714;2024-02-14T06:33:06;6.53;;;5.83;;
3597;SDS011;1813;52.016;8.714;2024-02-14T06:35:40;6.57;;;5.77;;
3597;SDS011;1813;52.016;8.714;2024-02-14T06:38:14;6.60;;;6.00;;
3597;SDS011;1813;52.016;8.714;2024-02-14T06:40:49;6.83;;;6.13;;
3597;SDS011;1813;52.016;8.714;2024-02-14T06:43:22;7.07;;;6.37;;
3597;SDS011;1813;52.016;8.714;2024-02-14T06:45:58;7.00;;;6.27;;
3597;SDS011;1813;52.016;8.714;2024-02-14T06:48:34;6.73;;;6.13;;
3597;SDS011;1813;52.016;8.714;2024-02-14T06:51:09;6.73;;;6.03;;
3597;SDS011;1813;52.016;8.714;2024-02-14T06:53:43;6.60;;;6.00;;
3597;SDS011;1813;52.016;8.714;2024-02-14T06:56:17;6.40;;;5.80;;
3597;SDS011;1813;52.016;8.714;2024-02-14T06:58:51;5.70;;;4.50;;
3597;SDS011;1813;52.016;8.714;2024-02-14T07:01:32;5.73;;;5.23;;
3597;SDS011;1813;52.016;8.714;2024-02-14T07:04:06;6.07;;;5.57;;
3597;SDS011;1813;52.016;8.714;2024-02-14T07:06:42;6.33;;;5.73;;
3597;SDS011;1813;52.016;8.714;2024-02-14T07:09:16;7.57;;;6.57;;
3597;SDS011;1813;52.016;8.714;2024-02-14T07:11:49;8.47;;;6.80;;
3597;SDS011;1813;52.016;8.714;2024-02-14T07:14:23;8.77;;;7.87;;
3597;SDS011;1813;52.016;8.714;2024-02-14T07:17:01;10.50;;;9.40;;
3597;SDS011;1813;52.016;8.714;2024-02-14T07:19:35;14.50;;;10.00;;
3597;SDS011;1813;52.016;8.714;2024-02-14T07:22:09;13.43;;;10.13;;
3597;SDS011;1813;52.016;8.714;2024-02-14T07:24:42;15.80;;;11.97;;
3597;SDS011;1813;52.016;8.714;2024-02-14T07:27:16;13.43;;;9.33;;
3597;SDS011;1813;52.016;8.714;2024-02-14T07:29:51;17.87;;;13.00;;
3597;SDS011;1813;52.016;8.714;2024-02-14T07:32:27;17.37;;;12.93;;
3597;SDS011;1813;52.016;8.714;2024-02-14T07:35:01;17.27;;;13.07;;
3597;SDS011;1813;52.016;8.714;2024-02-14T07:37:36;20.23;;;13.80;;
3597;SDS011;1813;52.016;8.714;2024-02-14T07:40:10;22.40;;;14.57;;
3597;SDS011;1813;52.016;8.714;2024-02-14T07:42:44;18.20;;;12.23;;
3597;SDS011;1813;52.016;8.714;2024-02-14T07:45:17;21.93;;;15.00;;
3597;SDS011;1813;52.016;8.714;2024-02-14T07:47:53;18.30;;;13.30;;
3597;SDS011;1813;52.016;8.714;2024-02-14T07:50:28;16.97;;;13.47;;
3597;SDS011;1813;52.016;8.714;2024-02-14T07:53:02;21.87;;;14.90;;
3597;SDS011;1813;52.016;8.714;2024-02-14T07:55:36;17.90;;;14.00;;
3597;SDS011;1813;52.016;8.714;2024-02-14T07:58:10;19.80;;;13.77;;
3597;SDS011;1813;52.016;8.714;2024-02-14T08:00:43;24.53;;;13.90;;
3597;SDS011;1813;52.016;8.714;2024-02-14T08:03:19;18.00;;;12.93;;
3597;SDS011;1813;52.016;8.714;2024-02-14T08:05:54;19.60;;;13.97;;
3597;SDS011;1813;52.016;8.714;2024-02-14T08:08:28;18.23;;;13.00;;
3597;SDS011;1813;52.016;8.714;2024-02-14T08:11:04;15.00;;;12.93;;
3597;SDS011;1813;52.016;8.714;2024-02-14T08:13:37;16.30;;;12.83;;
3597;SDS011;1813;52.016;8.714;2024-02-14T08:16:11;18.60;;;13.00;;
3597;SDS011;1813;52.016;8.714;2024-02-14T08:18:47;15.40;;;13.13;;
3597;SDS011;1813;52.016;8.714;2024-02-14T08:21:23;14.80;;;12.07;;
3597;SDS011;1813;52.016;8.714;2024-02-14T08:23:56;17.80;;;12.77;;
3597;SDS011;1813;52.016;8.714;2024-02-14T08:26:30;18.03;;;12.63;;
3597;SDS011;1813;52.016;8.714;2024-02-14T08:29:05;15.53;;;12.80;;
3597;SDS011;1813;52.016;8.714;2024-02-14T08:31:40;13.23;;;10.90;;
3597;SDS011;1813;52.016;8.714;2024-02-14T08:34:16;16.23;;;11.93;;
3597;SDS011;1813;52.016;8.714;2024-02-14T08:36:50;16.37;;;11.03;;
3597;SDS011;1813;52.016;8.714;2024-02-14T08:39:24;14.50;;;11.63;;
3597;SDS011;1813;52.016;8.714;2024-02-14T08:41:59;13.47;;;11.67;;
3597;SDS011;1813;52.016;8.714;2024-02-14T08:44:37;16.57;;;12.30;;
3597;SDS011;1813;52.016;8.714;2024-02-14T08:47:11;14.77;;;11.67;;
3597;SDS011;1813;52.016;8.714;2024-02-14T08:49:47;13.10;;;11.70;;
3597;SDS011;1813;52.016;8.714;2024-02-14T08:52:21;14.63;;;12.07;;
3597;SDS011;1813;52.016;8.714;2024-02-14T08:54:55;13.93;;;11.63;;
3597;SDS011;1813;52.016;8.714;2024-02-14T08:57:29;12.60;;;11.30;;
3597;SDS011;1813;52.016;8.714;2024-02-14T09:00:03;12.67;;;10.97;;
3597;SDS011;1813;52.016;8.714;2024-02-14T09:02:41;12.33;;;10.50;;
3597;SDS011;1813;52.016;8.714;2024-02-14T09:05:17;12.53;;;10.63;;
3597;SDS011;1813;52.016;8.714;2024-02-14T09:07:52;13.37;;;10.20;;
3597;SDS011;1813;52.016;8.714;2024-02-14T09:10:26;11.60;;;9.70;;
3597;SDS011;1813;52.016;8.714;2024-02-14T09:13:02;11.27;;;9.27;;
3597;SDS011;1813;52.016;8.714;2024-02-14T09:15:37;9.63;;;8.73;;
3597;SDS011;1813;52.016;8.714;2024-02-14T09:18:11;10.83;;;9.23;;
3597;SDS011;1813;52.016;8.714;2024-02-14T09:20:49;10.20;;;9.20;;
3597;SDS011;1813;52.016;8.714;2024-02-14T09:23:23;10.20;;;9.20;;
3597;SDS011;1813;52.016;8.714;2024-02-14T09:25:56;10.23;;;9.23;;
3597;SDS011;1813;52.016;8.714;2024-02-14T09:28:30;11.37;;;9.13;;
3597;SDS011;1813;52.016;8.714;2024-02-14T09:31:05;11.17;;;9.10;;
3597;SDS011;1813;52.016;8.714;2024-02-14T09:33:40;11.23;;;9.50;;
3597;SDS011;1813;52.016;8.714;2024-02-14T09:36:17;10.00;;;8.80;;
3597;SDS011;1813;52.016;8.714;2024-02-14T09:38:54;12.03;;;9.50;;
3597;SDS011;1813;52.016;8.714;2024-02-14T09:41:29;10.77;;;9.23;;
3597;SDS011;1813;52.016;8.714;2024-02-14T09:44:06;12.10;;;9.80;;
3597;SDS011;1813;52.016;8.714;2024-02-14T09:46:40;10.67;;;9.60;;
3597;SDS011;1813;52.016;8.714;2024-02-14T09:49:15;12.53;;;9.70;;
3597;SDS011;1813;52.016;8.714;2024-02-14T09:51:53;12.57;;;10.17;;
3597;SDS011;1813;52.016;8.714;2024-02-14T09:54:29;13.20;;;10.13;;
3597;SDS011;1813;52.016;8.714;2024-02-14T09:57:04;13.27;;;10.20;;
3597;SDS011;1813;52.016;8.714;2024-02-14T09:59:39;12.37;;;11.07;;
3597;SDS011;1813;52.016;8.714;2024-02-14T10:02:13;12.43;;;10.67;;
3597;SDS011;1813;52.016;8.714;2024-02-14T10:04:48;13.27;;;10.90;;
3597;SDS011;1813;52.016;8.714;2024-02-14T10:07:26;13.73;;;10.50;;
3597;SDS011;1813;52.016;8.714;2024-02-14T10:10:05;11.30;;;10.10;;
3597;SDS011;1813;52.016;8.714;2024-02-14T10:12:38;11.07;;;9.83;;
3597;SDS011;1813;52.016;8.714;2024-02-14T10:15:15;14.00;;;11.37;;
3597;SDS011;1813;52.016;8.714;2024-02-14T10:17:49;17.43;;;11.17;;
3597;SDS011;1813;52.016;8.714;2024-02-14T10:20:24;16.93;;;11.90;;
3597;SDS011;1813;52.016;8.714;2024-02-14T10:23:03;17.37;;;13.07;;
3597;SDS011;1813;52.016;8.714;2024-02-14T10:25:37;15.33;;;13.10;;
3597;SDS011;1813;52.016;8.714;2024-02-14T10:28:10;16.67;;;13.03;;
3597;SDS011;1813;52.016;8.714;2024-02-14T10:30:45;19.20;;;14.43;;
3597;SDS011;1813;52.016;8.714;2024-02-14T10:33:19;19.97;;;14.97;;
3597;SDS011;1813;52.016;8.714;2024-02-14T10:35:53;20.20;;;14.40;;
3597;SDS011;1813;52.016;8.714;2024-02-14T10:38:30;18.97;;;14.33;;
3597;SDS011;1813;52.016;8.714;2024-02-14T10:41:05;18.77;;;14.97;;
3597;SDS011;1813;52.016;8.714;2024-02-14T10:43:40;18.73;;;15.60;;
3597;SDS011;1813;52.016;8.714;2024-02-14T10:46:15;24.50;;;14.90;;
3597;SDS011;1813;52.016;8.714;2024-02-14T10:48:53;16.43;;;13.83;;
3597;SDS011;1813;52.016;8.714;2024-02-14T10:51:33;20.33;;;14.93;;
3597;SDS011;1813;52.016;8.714;2024-02-14T10:54:11;19.13;;;14.83;;
3597;SDS011;1813;52.016;8.714;2024-02-14T10:56:48;17.70;;;14.63;;
3597;SDS011;1813;52.016;8.714;2024-02-14T10:59:26;17.20;;;14.50;;
3597;SDS011;1813;52.016;8.714;2024-02-14T11:02:04;23.10;;;14.53;;
3597;SDS011;1813;52.016;8.714;2024-02-14T11:04:37;16.67;;;14.10;;
3597;SDS011;1813;52.016;8.714;2024-02-14T11:07:13;17.57;;;13.67;;
3597;SDS011;1813;52.016;8.714;2024-02-14T11:10:04;17.97;;;12.80;;
3597;SDS011;1813;52.016;8.714;2024-02-14T11:12:37;16.30;;;14.07;;
3597;SDS011;1813;52.016;8.714;2024-02-14T11:15:12;19.17;;;13.30;;
3597;SDS011;1813;52.016;8.714;2024-02-14T11:17:52;15.20;;;13.43;;
3597;SDS011;1813;52.016;8.714;2024-02-14T11:20:39;14.63;;;13.13;;
3597;SDS011;1813;52.016;8.714;2024-02-14T11:23:20;15.73;;;13.10;;
3597;SDS011;1813;52.016;8.714;2024-02-14T11:26:05;14.90;;;12.97;;
3597;SDS011;1813;52.016;8.714;2024-02-14T11:28:40;14.40;;;12.47;;
3597;SDS011;1813;52.016;8.714;2024-02-14T11:31:17;15.90;;;14.17;;
3597;SDS011;1813;52.016;8.714;2024-02-14T11:33:50;18.50;;;13.53;;
3597;SDS011;1813;52.016;8.714;2024-02-14T11:36:26;13.40;;;11.93;;
3597;SDS011;1813;52.016;8.714;2024-02-14T11:39:02;15.23;;;11.73;;
3597;SDS011;1813;52.016;8.714;2024-02-14T11:41:42;17.70;;;11.50;;
3597;SDS011;1813;52.016;8.714;2024-02-14T11:44:15;13.93;;;12.40;;
3597;SDS011;1813;52.016;8.714;2024-02-14T11:46:50;13.70;;;11.70;;
3597;SDS011;1813;52.016;8.714;2024-02-14T11:49:23;13.60;;;11.20;;
3597;SDS011;1813;52.016;8.714;2024-02-14T11:51:57;15.60;;;11.43;;
3597;SDS011;1813;52.016;8.714;2024-02-14T11:54:34;17.87;;;12.30;;
3597;SDS011;1813;52.016;8.714;2024-02-14T11:57:11;14.30;;;11.87;;
3597;SDS011;1813;52.016;8.714;2024-02-14T11:59:44;14.40;;;10.60;;
3597;SDS011;1813;52.016;8.714;2024-02-14T12:02:18;17.37;;;12.87;;
3597;SDS011;1813;52.016;8.714;2024-02-14T12:04:52;12.20;;;11.00;;
3597;SDS011;1813;52.016;8.714;2024-02-14T12:07:27;12.20;;;10.87;;
3597;SDS011;1813;52.016;8.714;2024-02-14T12:10:00;14.30;;;9.83;;
3597;SDS011;1813;52.016;8.714;2024-02-14T12:12:37;11.30;;;10.20;;
3597;SDS011;1813;52.016;8.714;2024-02-14T12:15:10;16.27;;;10.43;;
3597;SDS011;1813;52.016;8.714;2024-02-14T12:17:47;13.17;;;9.93;;
3597;SDS011;1813;52.016;8.714;2024-02-14T12:20:28;13.27;;;9.80;;
3597;SDS011;1813;52.016;8.714;2024-02-14T12:23:03;10.53;;;9.50;;
3597;SDS011;1813;52.016;8.714;2024-02-14T12:25:38;11.77;;;10.60;;
3597;SDS011;1813;52.016;8.714;2024-02-14T12:28:16;11.40;;;10.20;;
3597;SDS011;1813;52.016;8.714;2024-02-14T12:30:50;12.30;;;9.93;;
3597;SDS011;1813;52.016;8.714;2024-02-14T12:33:27;9.83;;;8.83;;
3597;SDS011;1813;52.016;8.714;2024-02-14T12:36:03;9.80;;;8.80;;
3597;SDS011;1813;52.016;8.714;2024-02-14T12:38:40;10.10;;;9.10;;
3597;SDS011;1813;52.016;8.714;2024-02-14T12:41:18;9.73;;;8.90;;
3597;SDS011;1813;52.016;8.714;2024-02-14T12:43:55;11.00;;;9.90;;
3597;SDS011;1813;52.016;8.714;2024-02-14T12:46:28;10.80;;;9.77;;
3597;SDS011;1813;52.016;8.714;2024-02-14T12:49:04;14.60;;;9.77;;
3597;SDS011;1813;52.016;8.714;2024-02-14T12:51:39;9.70;;;8.90;;
3597;SDS011;1813;52.016;8.714;2024-02-14T12:54:12;9.00;;;8.20;;
3597;SDS011;1813;52.016;8.714;2024-02-14T12:56:46;10.23;;;9.23;;
3597;SDS011;1813;52.016;8.714;2024-02-14T12:59:22;10.20;;;9.20;;
3597;SDS011;1813;52.016;8.714;2024-02-14T13:01:58;10.60;;;9.33;;
3597;SDS011;1813;52.016;8.714;2024-02-14T13:04:33;9.83;;;8.93;;
3597;SDS011;1813;52.016;8.714;2024-02-14T13:07:07;10.07;;;9.07;;
3597;SDS011;1813;52.016;8.714;2024-02-14T13:09:42;10.47;;;9.37;;
3597;SDS011;1813;52.016;8.714;2024-02-14T13:12:15;10.40;;;9.30;;
3597;SDS011;1813;52.016;8.714;2024-02-14T13:14:52;10.47;;;9.37;;
3597;SDS011;1813;52.016;8.714;2024-02-14T13:17:26;11.97;;;8.90;;
3597;SDS011;1813;52.016;8.714;2024-02-14T13:19:59;11.20;;;9.77;;
3597;SDS011;1813;52.016;8.714;2024-02-14T13:22:32;11.03;;;9.93;;
3597;SDS011;1813;52.016;8.714;2024-02-14T13:25:06;11.87;;;10.67;;
3597;SDS011;1813;52.016;8.714;2024-02-14T13:27:40;12.30;;;10.97;;
3597;SDS011;1813;52.016;8.714;2024-02-14T13:30:17;15.80;;;12.93;;
3597;SDS011;1813;52.016;8.714;2024-02-14T13:32:52;12.00;;;10.80;;
3597;SDS011;1813;52.016;8.714;2024-02-14T13:35:26;11.80;;;10.60;;
3597;SDS011;1813;52.016;8.714;2024-02-14T13:38:02;11.13;;;9.93;;
3597;SDS011;1813;52.016;8.714;2024-02-14T13:40:37;11.57;;;10.37;;
3597;SDS011;1813;52.016;8.714;2024-02-14T13:43:10;13.50;;;11.23;;
3597;SDS011;1813;52.016;8.714;2024-02-14T13:45:46;12.63;;;10.70;;
3597;SDS011;1813;52.016;8.714;2024-02-14T13:48:22;12.40;;;10.87;;
3597;SDS011;1813;52.016;8.714;2024-02-14T13:50:58;12.53;;;11.23;;
3597;SDS011;1813;52.016;8.714;2024-02-14T13:53:34;12.00;;;10.70;;
3597;SDS011;1813;52.016;8.714;2024-02-14T13:56:07;12.53;;;9.93;;
3597;SDS011;1813;52.016;8.714;2024-02-14T13:58:41;11.03;;;9.30;;
3597;SDS011;1813;52.016;8.714;2024-02-14T14:01:21;10.47;;;9.30;;
3597;SDS011;1813;52.016;8.714;2024-02-14T14:03:56;13.67;;;9.90;;
3597;SDS011;1813;52.016;8.714;2024-02-14T14:06:31;11.50;;;9.57;;
3597;SDS011;1813;52.016;8.714;2024-02-14T14:09:05;13.90;;;9.20;;
3597;SDS011;1813;52.016;8.714;2024-02-14T14:11:41;12.57;;;8.23;;
3597;SDS011;1813;52.016;8.714;2024-02-14T14:14:18;9.63;;;7.63;;
3597;SDS011;1813;52.016;8.714;2024-02-14T14:16:53;8.80;;;7.30;;
3597;SDS011;1813;52.016;8.714;2024-02-14T14:19:27;10.03;;;6.50;;
3597;SDS011;1813;52.016;8.714;2024-02-14T14:22:01;9.30;;;7.23;;
3597;SDS011;1813;52.016;8.714;2024-02-14T14:24:34;8.30;;;7.40;;
3597;SDS011;1813;52.016;8.714;2024-02-14T14:27:10;7.20;;;6.60;;
3597;SDS011;1813;52.016;8.714;2024-02-14T14:29:44;8.03;;;6.83;;
3597;SDS011;1813;52.016;8.714;2024-02-14T14:32:21;7.10;;;6.40;;
3597;SDS011;1813;52.016;8.714;2024-02-14T14:34:54;7.33;;;6.60;;
3597;SDS011;1813;52.016;8.714;2024-02-14T14:37:28;7.57;;;6.77;;
3597;SDS011;1813;52.016;8.714;2024-02-14T14:40:04;8.43;;;7.27;;
3597;SDS011;1813;52.016;8.714;2024-02-14T14:42:40;10.43;;;8.30;;
3597;SDS011;1813;52.016;8.714;2024-02-14T14:45:14;12.67;;;9.97;;
3597;SDS011;1813;52.016;8.714;2024-02-14T14:47:52;8.83;;;7.10;;
3597;SDS011;1813;52.016;8.714;2024-02-14T14:50:27;7.93;;;6.90;;
3597;SDS011;1813;52.016;8.714;2024-02-14T14:53:01;7.70;;;6.83;;
3597;SDS011;1813;52.016;8.714;2024-02-14T14:58:26;7.63;;;6.93;;
3597;SDS011;1813;52.016;8.714;2024-02-14T15:01:03;6.37;;;5.77;;
3597;SDS011;1813;52.016;8.714;2024-02-14T15:03:39;8.47;;;6.40;;
3597;SDS011;1813;52.016;8.714;2024-02-14T15:06:13;8.40;;;6.20;;
3597;SDS011;1813;52.016;8.714;2024-02-14T15:08:49;9.53;;;6.83;;
3597;SDS011;1813;52.016;8.714;2024-02-14T15:11:23;7.80;;;7.10;;
3597;SDS011;1813;52.016;8.714;2024-02-14T15:13:58;9.00;;;7.67;;
3597;SDS011;1813;52.016;8.714;2024-02-14T15:16:32;8.50;;;7.73;;
3597;SDS011;1813;52.016;8.714;2024-02-14T15:19:08;9.40;;;8.07;;
3597;SDS011;1813;52.016;8.714;2024-02-14T15:21:41;10.50;;;7.80;;
3597;SDS011;1813;52.016;8.714;2024-02-14T15:24:15;10.17;;;7.80;;
3597;SDS011;1813;52.016;8.714;2024-02-14T15:26:50;8.20;;;7.30;;
3597;SDS011;1813;52.016;8.714;2024-02-14T15:29:32;8.70;;;7.80;;
3597;SDS011;1813;52.016;8.714;2024-02-14T15:32:18;7.00;;;6.30;;
3597;SDS011;1813;52.016;8.714;2024-02-14T15:35:11;7.00;;;5.90;;
3597;SDS011;1813;52.016;8.714;2024-02-14T15:37:45;5.77;;;5.33;;
3597;SDS011;1813;52.016;8.714;2024-02-14T15:40:19;6.70;;;6.00;;
3597;SDS011;1813;52.016;8.714;2024-02-14T15:42:52;6.53;;;5.70;;
3597;SDS011;1813;52.016;8.714;2024-02-14T15:45:26;6.80;;;6.13;;
3597;SDS011;1813;52.016;8.714;2024-02-14T15:48:00;12.90;;;9.13;;
3597;SDS011;1813;52.016;8.714;2024-02-14T15:50:36;8.00;;;7.17;;
3597;SDS011;1813;52.016;8.714;2024-02-14T15:53:10;8.13;;;6.73;;
3597;SDS011;1813;52.016;8.714;2024-02-14T15:55:44;8.43;;;6.90;;